Minatare, NE (69356)

2:17 AM MDT on October 01, 2014 (GMT -0600)
KNEB Radio | Change Station
CLOSE
Current Station
Personal Weather Station
Location: Scottsbluff, NE
Elevation: 3878 ft
Nearby Weather Stations

Elev 3878 ft 41.86 °N, 103.64 °W | Updated 7 minutes ago

Partly Cloudy
Partly Cloudy
51.8 °F
Feels Like 51.8 °F
N
2.0
Wind Variable Wind from NNW
Gusts 4.0 mph

Today
High -- | Low -- °F
--% Chance of Precip.
Yesterday
High -- | Low -- °F
Precip. -- in
6:51 AM 6:36 PM
Waxing Crescent, 45% visible
Pressure 29.63 in
Visibility 7.0 miles
Clouds Overcast 5000 ft
Dew Point 44 °F
Humidity 76%
Rainfall 0.00 in
Snow Depth Not available.
UV 0 out of 12
Pollen .50 out of 12
Air Quality Not available.
Flu Activity Not available.
METAR KTOR 300653Z AUTO 28017G27KT 7SM RA OVC050 10/10 A2970 RMK AO2 PK WND 30031/0629 SLP033 P0008 T01000100 401780100

More Conditions Fewer Conditions

Pressure 29.63 in
Visibility 7.0 miles
Clouds Overcast 5000 ft
Dew Point 44 °F
Humidity 76%
Rainfall 0.00 in
Snow Depth Not available.
UV 0 out of 12
Pollen .50 out of 12
Air Quality Not available.
Flu Activity Not available.
METAR KTOR 300653Z AUTO 28017G27KT 7SM RA OVC050 10/10 A2970 RMK AO2 PK WND 30031/0629 SLP033 P0008 T01000100 401780100

More Conditions Fewer Conditions

10-Day Weather Forecast

Almanac

Astronomy

Oct. 01, 2014 Rise Set
Actual Time 6:51 AM MDT 6:36 PM MDT
Civil Twilight 6:23 AM MDT 7:03 PM MDT
Nautical Twilight 5:51 AM MDT 7:36 PM MDT
Astronomical Twilight 5:18 AM MDT 8:08 PM MDT
Moon 1:58 PM MDT No Moon Set
Length of Visible Light 12h 40m
Length of Day
11h 44m
Tomorrow will be 2m 47s shorter.
Waxing Crescent, 45% of the Moon is Illuminated
Today
Waxing Crescent
Oct 1
First Quarter
Oct 8
Full
Oct 15
Last Quarter
Oct 23
New

Today's Extremes

State Highs State Lows

Community

WunderPhotos

Upload Photos

1,757,902 photos uploaded!

Nearby

Snow Depth

Station Depth Elevation
No new snow has been reported.

Earthquake Activity

City Distance Mag. Time & Date
No recent earthquake activity has been reported nearby.
Minimum magnitude displayed is 2.5.

Coastal Water Temperatures

Place Temperature
No Stations Reporting

Nearby Weather Stations